createdAt,value
2023-05-22T00:02:12.265Z,11.93
2023-05-22T00:04:40.856Z,10.68
2023-05-22T00:07:09.463Z,12.40
2023-05-22T00:09:38.228Z,12.57
2023-05-22T00:12:07.786Z,12.05
2023-05-22T00:14:36.406Z,11.68
2023-05-22T00:17:04.834Z,12.38
2023-05-22T00:19:33.345Z,10.65
2023-05-22T00:22:02.133Z,9.95
2023-05-22T00:24:32.018Z,11.82
2023-05-22T00:27:00.865Z,11.68
2023-05-22T00:29:30.533Z,12.23
2023-05-22T00:31:58.948Z,12.35
2023-05-22T00:34:27.180Z,13.90
2023-05-22T00:36:55.970Z,12.38
2023-05-22T00:39:25.012Z,12.07
2023-05-22T00:41:53.790Z,13.93
2023-05-22T00:44:23.247Z,11.48
2023-05-22T00:46:51.670Z,12.75
2023-05-22T00:49:20.131Z,11.60
2023-05-22T00:51:48.871Z,13.40
2023-05-22T00:54:18.119Z,11.95
2023-05-22T00:56:47.458Z,14.60
2023-05-22T00:59:16.151Z,13.43
2023-05-22T01:01:45.216Z,14.18
2023-05-22T01:04:14.810Z,14.45
2023-05-22T01:06:46.793Z,14.15
2023-05-22T01:09:15.270Z,13.73
2023-05-22T01:12:00.570Z,12.82
2023-05-22T01:14:52.948Z,13.30
2023-05-22T01:17:41.142Z,13.55
2023-05-22T01:20:29.948Z,13.90
2023-05-22T01:23:04.120Z,11.70
2023-05-22T01:25:54.216Z,13.00
2023-05-22T01:28:31.324Z,13.57
2023-05-22T01:31:19.643Z,13.38
2023-05-22T01:33:53.501Z,12.77
2023-05-22T01:36:26.301Z,14.30
2023-05-22T01:38:56.655Z,13.90
2023-05-22T01:41:29.398Z,14.10
2023-05-22T01:44:23.675Z,12.60
2023-05-22T01:46:52.598Z,12.30
2023-05-22T01:49:20.865Z,14.50
2023-05-22T01:52:50.739Z,13.85
2023-05-22T01:55:27.615Z,12.13
2023-05-22T01:58:03.139Z,12.75
2023-05-22T02:00:33.810Z,13.30
2023-05-22T02:03:09.389Z,13.38
2023-05-22T02:05:58.095Z,14.88
2023-05-22T02:08:28.022Z,13.50
2023-05-22T02:10:58.384Z,12.65
2023-05-22T02:13:27.678Z,15.23
2023-05-22T02:15:58.012Z,13.38
2023-05-22T02:18:31.731Z,14.00
2023-05-22T02:21:02.880Z,12.70
2023-05-22T02:23:33.466Z,13.63
2023-05-22T02:26:02.021Z,13.73
2023-05-22T02:28:31.354Z,13.90
2023-05-22T02:31:00.360Z,13.77
2023-05-22T02:33:30.061Z,13.18
2023-05-22T02:35:59.251Z,13.80
2023-05-22T02:38:27.428Z,12.63
2023-05-22T02:40:56.795Z,12.68
2023-05-22T02:43:25.493Z,13.48
2023-05-22T02:45:54.333Z,12.15
2023-05-22T02:48:23.252Z,13.43
2023-05-22T02:50:51.320Z,13.13
2023-05-22T02:53:19.719Z,13.15
2023-05-22T02:55:48.548Z,13.10
2023-05-22T02:58:18.001Z,13.25
2023-05-22T03:00:47.340Z,12.05
2023-05-22T03:03:18.253Z,13.13
2023-05-22T03:05:46.761Z,14.02
2023-05-22T03:08:43.580Z,12.73
2023-05-22T03:11:12.472Z,12.07
2023-05-22T03:13:41.140Z,12.57
2023-05-22T03:16:10.185Z,13.35
2023-05-22T03:18:42.956Z,13.27
2023-05-22T03:21:11.450Z,13.45
2023-05-22T03:23:40.490Z,12.57
2023-05-22T03:26:09.096Z,13.68
2023-05-22T03:28:39.424Z,13.10
2023-05-22T03:31:09.720Z,12.70
2023-05-22T03:33:52.932Z,12.32
2023-05-22T03:36:23.272Z,11.57
2023-05-22T03:38:52.316Z,11.05
2023-05-22T03:41:20.867Z,11.43
2023-05-22T03:43:49.749Z,11.32
2023-05-22T03:46:18.494Z,10.40
2023-05-22T03:48:47.235Z,10.93
2023-05-22T03:51:19.314Z,12.95
2023-05-22T03:53:48.685Z,12.07
2023-05-22T03:56:17.566Z,12.60
2023-05-22T03:58:50.864Z,11.43
2023-05-22T04:01:19.427Z,12.20
2023-05-22T04:03:48.339Z,11.65
2023-05-22T04:06:17.742Z,12.07
2023-05-22T04:08:47.108Z,12.15
2023-05-22T04:11:16.205Z,13.27
2023-05-22T04:13:45.144Z,13.20
2023-05-22T04:16:38.916Z,12.35
2023-05-22T04:19:09.942Z,13.82
2023-05-22T04:21:38.499Z,13.00
2023-05-22T04:24:10.915Z,12.25
2023-05-22T04:26:42.297Z,12.95
2023-05-22T04:29:14.688Z,11.35
2023-05-22T04:31:44.857Z,9.90
2023-05-22T04:34:16.986Z,9.45
2023-05-22T04:36:46.603Z,9.45
2023-05-22T04:39:15.418Z,9.35
2023-05-22T04:41:44.559Z,8.23
2023-05-22T04:44:15.407Z,8.77
2023-05-22T04:46:44.299Z,9.07
2023-05-22T04:49:13.673Z,8.63
2023-05-22T04:51:42.576Z,8.40
2023-05-22T04:54:30.046Z,8.23
2023-05-22T04:57:18.438Z,8.63
2023-05-22T05:00:06.875Z,9.50
2023-05-22T05:02:38.726Z,8.75
2023-05-22T05:05:07.280Z,9.52
2023-05-22T05:07:39.012Z,8.90
2023-05-22T05:10:08.555Z,7.40
2023-05-22T05:12:37.580Z,8.32
2023-05-22T05:15:08.020Z,8.57
2023-05-22T05:17:36.378Z,8.20
2023-05-22T05:20:07.390Z,8.77
2023-05-22T05:22:37.504Z,8.25
2023-05-22T05:25:09.537Z,6.22
2023-05-22T05:27:39.971Z,6.90
2023-05-22T05:30:08.978Z,7.60
2023-05-22T05:32:56.187Z,6.35
2023-05-22T05:35:35.284Z,6.15
2023-05-22T05:38:12.488Z,6.40
2023-05-22T05:40:47.610Z,5.40
2023-05-22T05:43:16.607Z,6.28
2023-05-22T05:45:45.913Z,6.20
2023-05-22T05:48:14.648Z,5.75
2023-05-22T05:50:46.051Z,4.95
2023-05-22T05:53:16.236Z,4.72
2023-05-22T05:55:50.680Z,4.80
2023-05-22T05:58:19.476Z,4.22
2023-05-22T06:01:06.089Z,4.75
2023-05-22T06:03:36.077Z,4.55
2023-05-22T06:06:29.928Z,4.30
2023-05-22T06:09:16.611Z,3.88
2023-05-22T06:12:15.069Z,4.35
2023-05-22T06:14:45.838Z,4.90
2023-05-22T06:17:17.057Z,5.07
2023-05-22T06:19:47.340Z,5.90
2023-05-22T06:22:17.531Z,4.90
2023-05-22T06:24:49.632Z,5.50
2023-05-22T06:27:23.285Z,5.18
2023-05-22T06:29:51.822Z,5.60
2023-05-22T06:32:21.597Z,5.20
2023-05-22T06:34:53.329Z,4.85
2023-05-22T06:37:23.834Z,5.30
2023-05-22T06:39:52.478Z,5.15
2023-05-22T06:42:33.223Z,4.90
2023-05-22T06:45:20.124Z,4.55
2023-05-22T06:48:04.544Z,4.50
2023-05-22T06:50:37.488Z,5.20
2023-05-22T06:53:06.765Z,4.50
2023-05-22T06:55:35.350Z,4.97
2023-05-22T06:58:11.703Z,5.47
2023-05-22T07:00:40.914Z,4.40
2023-05-22T07:03:15.197Z,4.68
2023-05-22T07:05:57.978Z,5.25
2023-05-22T07:08:29.730Z,4.72
2023-05-22T07:10:59.471Z,4.93
2023-05-22T07:13:28.797Z,4.75
2023-05-22T07:15:57.844Z,4.05
2023-05-22T07:18:26.766Z,4.88
2023-05-22T07:20:55.966Z,4.75
2023-05-22T07:23:26.355Z,4.72
2023-05-22T07:25:55.065Z,4.65
2023-05-22T07:28:27.367Z,5.13
2023-05-22T07:31:34.556Z,3.88
2023-05-22T07:34:04.126Z,4.15
2023-05-22T07:36:32.884Z,4.47
2023-05-22T07:39:01.667Z,4.65
2023-05-22T07:41:30.254Z,4.28
2023-05-22T07:43:58.976Z,4.72
2023-05-22T07:46:35.566Z,4.60
2023-05-22T07:49:12.337Z,3.85
2023-05-22T07:51:43.993Z,3.85
2023-05-22T07:54:14.212Z,4.13
2023-05-22T07:56:45.876Z,4.20
2023-05-22T07:59:19.694Z,4.15
2023-05-22T08:01:48.405Z,4.57
2023-05-22T08:04:16.920Z,4.47
2023-05-22T08:06:45.572Z,3.92
2023-05-22T08:09:14.536Z,4.15
2023-05-22T08:11:42.930Z,4.20
2023-05-22T08:14:12.114Z,4.85
2023-05-22T08:16:40.326Z,3.92
2023-05-22T08:19:09.392Z,3.65
2023-05-22T08:21:38.912Z,4.20
2023-05-22T08:24:08.907Z,4.07
2023-05-22T08:26:37.675Z,4.38
2023-05-22T08:29:05.978Z,3.67
2023-05-22T08:31:34.686Z,4.40
2023-05-22T08:34:05.087Z,4.20
2023-05-22T08:36:34.301Z,3.47
2023-05-22T08:39:03.795Z,3.60
2023-05-22T08:41:32.497Z,4.47
2023-05-22T08:44:00.840Z,3.78
2023-05-22T08:46:31.250Z,3.83
2023-05-22T08:49:00.230Z,4.10
2023-05-22T08:51:31.727Z,4.15
2023-05-22T08:54:05.964Z,3.85
2023-05-22T08:56:45.676Z,3.60
2023-05-22T08:59:22.680Z,3.88
2023-05-22T09:01:52.989Z,4.05
2023-05-22T09:04:24.014Z,4.22
2023-05-22T09:06:54.626Z,3.58
2023-05-22T09:09:23.319Z,3.65
2023-05-22T09:11:54.558Z,4.10
2023-05-22T09:14:25.584Z,3.92
2023-05-22T09:16:55.624Z,4.05
2023-05-22T09:19:24.555Z,3.75
2023-05-22T09:21:53.545Z,4.30
2023-05-22T09:24:22.122Z,4.13
2023-05-22T09:26:52.591Z,4.63
2023-05-22T09:29:21.149Z,3.72
2023-05-22T09:31:49.936Z,4.05
2023-05-22T09:34:18.944Z,4.45
2023-05-22T09:36:49.516Z,3.80
2023-05-22T09:39:18.296Z,4.00
2023-05-22T09:41:46.930Z,4.05
2023-05-22T09:44:16.616Z,3.88
2023-05-22T09:46:46.714Z,4.40
2023-05-22T09:49:17.083Z,3.83
2023-05-22T09:51:49.605Z,4.60
2023-05-22T09:54:20.600Z,3.60
2023-05-22T09:56:51.546Z,4.32
2023-05-22T09:59:23.735Z,3.97
2023-05-22T10:01:52.878Z,4.65
2023-05-22T10:04:23.763Z,4.55
2023-05-22T10:06:55.043Z,4.82
2023-05-22T10:09:31.396Z,4.72
2023-05-22T10:12:04.491Z,3.75
2023-05-22T10:14:34.934Z,4.55
2023-05-22T10:17:06.796Z,4.60
2023-05-22T10:19:38.746Z,4.18
2023-05-22T10:22:11.023Z,3.95
2023-05-22T10:24:41.298Z,5.18
2023-05-22T10:27:09.943Z,3.85
2023-05-22T10:29:45.874Z,4.13
2023-05-22T10:32:45.802Z,4.43
2023-05-22T10:35:16.884Z,4.85
2023-05-22T10:38:37.786Z,4.88
2023-05-22T10:41:08.579Z,4.82
2023-05-22T10:43:43.932Z,4.15
2023-05-22T10:46:13.238Z,4.30
2023-05-22T10:48:53.621Z,4.13
2023-05-22T10:51:23.648Z,4.00
2023-05-22T10:53:54.092Z,3.85
2023-05-22T10:56:25.347Z,3.95
2023-05-22T10:58:59.562Z,4.40
2023-05-22T11:01:28.069Z,4.55
2023-05-22T11:04:09.388Z,4.13
2023-05-22T11:06:49.114Z,4.30
2023-05-22T11:09:22.116Z,3.85
2023-05-22T11:12:28.902Z,4.00
2023-05-22T11:15:08.448Z,3.88
2023-05-22T11:17:40.317Z,4.40
2023-05-22T11:20:16.128Z,4.35
2023-05-22T11:23:00.623Z,4.30
2023-05-22T11:25:30.374Z,3.97
2023-05-22T11:27:59.149Z,4.32
2023-05-22T11:30:30.764Z,5.30
2023-05-22T11:33:00.875Z,4.70
2023-05-22T11:35:30.450Z,4.57
2023-05-22T11:37:59.053Z,4.72
2023-05-22T11:40:29.785Z,5.07
2023-05-22T11:42:58.241Z,4.22
2023-05-22T11:45:27.395Z,4.75
2023-05-22T11:47:56.822Z,4.90
2023-05-22T11:50:41.019Z,4.38
2023-05-22T11:53:12.859Z,4.65
2023-05-22T11:55:43.029Z,3.97
2023-05-22T11:58:11.495Z,4.28
2023-05-22T12:00:39.948Z,3.92
2023-05-22T12:03:09.255Z,4.70
2023-05-22T12:05:38.253Z,4.15
2023-05-22T12:08:06.570Z,4.22
2023-05-22T12:10:35.209Z,3.97
2023-05-22T12:13:04.119Z,4.55
2023-05-22T12:15:33.239Z,4.05
2023-05-22T12:18:02.157Z,4.90
2023-05-22T12:20:31.389Z,4.88
2023-05-22T12:23:00.203Z,4.10
2023-05-22T12:25:36.425Z,4.45
2023-05-22T12:28:07.806Z,4.80
2023-05-22T12:30:42.999Z,4.75
2023-05-22T12:33:15.357Z,4.72
2023-05-22T12:35:44.088Z,5.07
2023-05-22T12:38:13.816Z,5.22
2023-05-22T12:40:42.831Z,5.07
2023-05-22T12:43:11.735Z,5.65
2023-05-22T12:45:43.286Z,5.30
2023-05-22T12:48:13.200Z,5.68
2023-05-22T12:50:41.770Z,5.00
2023-05-22T12:53:10.588Z,5.13
2023-05-22T12:55:40.302Z,5.43
2023-05-22T12:58:08.849Z,5.05
2023-05-22T13:00:37.584Z,4.85
2023-05-22T13:03:07.115Z,5.03
2023-05-22T13:05:36.120Z,4.78
2023-05-22T13:08:05.204Z,4.82
2023-05-22T13:10:35.700Z,4.10
2023-05-22T13:13:03.775Z,3.78
2023-05-22T13:15:33.222Z,3.97
2023-05-22T13:18:01.847Z,4.63
2023-05-22T13:20:30.933Z,3.90
2023-05-22T13:22:59.828Z,5.10
2023-05-22T13:25:28.061Z,4.43
2023-05-22T13:27:59.177Z,3.72
2023-05-22T13:30:28.688Z,4.78
2023-05-22T13:32:57.497Z,4.55
2023-05-22T13:35:27.076Z,4.10
2023-05-22T13:37:55.807Z,4.30
2023-05-22T13:40:24.519Z,4.90
2023-05-22T13:42:53.786Z,4.45
2023-05-22T13:45:22.574Z,4.53
2023-05-22T13:47:51.255Z,5.43
2023-05-22T13:50:20.164Z,4.47
2023-05-22T13:52:49.496Z,4.35
2023-05-22T13:55:18.583Z,4.40
2023-05-22T13:57:47.924Z,4.57
2023-05-22T14:00:17.289Z,4.80
2023-05-22T14:02:46.632Z,5.13
2023-05-22T14:05:15.224Z,4.10
2023-05-22T14:07:43.968Z,4.13
2023-05-22T14:10:12.207Z,4.60
2023-05-22T14:12:40.913Z,4.30
2023-05-22T14:15:10.366Z,4.50
2023-05-22T14:17:39.087Z,4.65
2023-05-22T14:20:08.886Z,3.95
2023-05-22T14:22:55.478Z,4.28
2023-05-22T14:25:26.589Z,3.83
2023-05-22T14:27:55.445Z,4.35
2023-05-22T14:30:24.102Z,4.57
2023-05-22T14:32:53.030Z,4.45
2023-05-22T14:35:21.922Z,4.72
2023-05-22T14:37:50.688Z,4.10
2023-05-22T14:40:19.798Z,4.30
2023-05-22T14:42:50.715Z,5.22
2023-05-22T14:45:20.835Z,4.35
2023-05-22T14:47:49.159Z,4.70
2023-05-22T14:50:20.365Z,4.68
2023-05-22T14:52:50.182Z,4.57
2023-05-22T14:55:19.095Z,4.40
2023-05-22T14:57:48.070Z,4.50
2023-05-22T15:00:17.545Z,5.03
2023-05-22T15:02:46.427Z,4.32
2023-05-22T15:05:15.690Z,4.60
2023-05-22T15:07:46.700Z,4.85
2023-05-22T15:10:16.005Z,5.18
2023-05-22T15:12:44.307Z,4.55
2023-05-22T15:15:13.388Z,4.70
2023-05-22T15:17:43.080Z,4.20
2023-05-22T15:20:12.109Z,4.90
2023-05-22T15:22:40.656Z,5.35
2023-05-22T15:25:12.280Z,4.63
2023-05-22T15:27:43.343Z,4.75
2023-05-22T15:30:12.685Z,4.43
2023-05-22T15:32:41.947Z,5.25
2023-05-22T15:35:15.894Z,4.95
2023-05-22T15:37:44.446Z,5.25
2023-05-22T15:40:16.597Z,4.82
2023-05-22T15:42:45.420Z,4.57
2023-05-22T15:45:13.801Z,5.07
2023-05-22T15:47:43.114Z,5.00
2023-05-22T15:50:11.360Z,5.15
2023-05-22T15:52:40.853Z,5.03
2023-05-22T15:55:10.265Z,5.28
2023-05-22T15:57:39.055Z,4.78
2023-05-22T16:00:08.754Z,5.35
2023-05-22T16:02:37.965Z,4.93
2023-05-22T16:05:06.703Z,5.55
2023-05-22T16:07:35.310Z,6.32
2023-05-22T16:10:04.279Z,6.88
2023-05-22T16:12:33.629Z,5.97
2023-05-22T16:15:03.285Z,7.28
2023-05-22T16:17:33.960Z,6.80
2023-05-22T16:20:04.785Z,7.85
2023-05-22T16:22:47.301Z,6.47
2023-05-22T16:25:18.348Z,5.90
2023-05-22T16:27:47.085Z,6.80
2023-05-22T16:30:17.310Z,7.75
2023-05-22T16:32:47.783Z,8.10
2023-05-22T16:35:17.018Z,7.72
2023-05-22T16:37:45.687Z,8.27
2023-05-22T16:40:15.227Z,8.23
2023-05-22T16:42:44.050Z,7.82
2023-05-22T16:45:12.683Z,8.35
2023-05-22T16:47:40.843Z,8.50
2023-05-22T16:50:09.646Z,8.43
2023-05-22T16:52:38.838Z,8.85
2023-05-22T16:55:08.854Z,9.60
2023-05-22T16:57:36.953Z,9.90
2023-05-22T17:00:07.079Z,9.85
2023-05-22T17:02:36.484Z,10.13
2023-05-22T17:05:06.256Z,9.63
2023-05-22T17:07:34.657Z,10.38
2023-05-22T17:10:03.015Z,9.98
2023-05-22T17:12:34.096Z,11.57
2023-05-22T17:15:02.729Z,11.80
2023-05-22T17:17:35.078Z,10.87
2023-05-22T17:20:07.447Z,10.45
2023-05-22T17:22:37.512Z,10.38
2023-05-22T17:25:06.355Z,10.02
2023-05-22T17:27:36.656Z,10.98
2023-05-22T17:30:07.953Z,9.80
2023-05-22T17:32:36.503Z,9.18
2023-05-22T17:35:07.112Z,10.18
2023-05-22T17:37:35.947Z,9.15
2023-05-22T17:40:04.865Z,8.68
2023-05-22T17:42:34.190Z,8.50
2023-05-22T17:45:02.755Z,7.88
2023-05-22T17:47:35.884Z,7.68
2023-05-22T17:50:05.369Z,7.60
2023-05-22T17:52:34.406Z,7.80
2023-05-22T17:55:03.969Z,8.30
2023-05-22T17:57:33.700Z,8.50
2023-05-22T18:00:02.145Z,7.70
2023-05-22T18:02:41.455Z,7.60
2023-05-22T18:05:11.374Z,6.85
2023-05-22T18:07:39.960Z,7.55
2023-05-22T18:10:09.163Z,7.70
2023-05-22T18:12:38.502Z,7.63
2023-05-22T18:15:10.754Z,7.90
2023-05-22T18:17:41.555Z,8.27
2023-05-22T18:20:12.362Z,8.55
2023-05-22T18:22:41.088Z,8.70
2023-05-22T18:25:10.551Z,8.18
2023-05-22T18:27:38.720Z,8.77
2023-05-22T18:30:08.179Z,8.45
2023-05-22T18:32:37.074Z,7.68
2023-05-22T18:35:06.198Z,8.85
2023-05-22T18:37:41.172Z,8.57
2023-05-22T18:40:11.808Z,9.00
2023-05-22T18:42:40.398Z,8.88
2023-05-22T18:45:09.571Z,10.38
2023-05-22T18:47:38.536Z,12.93
2023-05-22T18:50:08.402Z,12.00
2023-05-22T18:52:37.192Z,12.20
2023-05-22T18:55:06.508Z,12.65
2023-05-22T18:57:34.672Z,13.75
2023-05-22T19:00:03.612Z,13.98
2023-05-22T19:02:35.035Z,14.90
2023-05-22T19:05:05.014Z,15.27
2023-05-22T19:07:33.695Z,13.57
2023-05-22T19:10:01.860Z,13.68
2023-05-22T19:12:34.218Z,14.15
2023-05-22T19:15:03.883Z,15.50
2023-05-22T19:17:34.191Z,13.55
2023-05-22T19:20:06.619Z,13.13
2023-05-22T19:22:35.079Z,14.95
2023-05-22T19:25:03.298Z,13.63
2023-05-22T19:27:32.296Z,13.80
2023-05-22T19:30:00.585Z,13.57
2023-05-22T19:32:29.872Z,15.32
2023-05-22T19:34:58.068Z,12.85
2023-05-22T19:37:26.365Z,13.45
2023-05-22T19:39:54.719Z,12.77
2023-05-22T19:42:23.070Z,13.68
2023-05-22T19:44:51.256Z,13.55
2023-05-22T19:47:19.422Z,14.18
2023-05-22T19:49:47.536Z,15.95
2023-05-22T19:52:16.031Z,14.20
2023-05-22T19:54:44.183Z,13.18
2023-05-22T19:57:12.274Z,13.45
2023-05-22T19:59:40.612Z,14.00
2023-05-22T20:02:08.973Z,14.90
2023-05-22T20:04:43.082Z,14.50
2023-05-22T20:07:11.421Z,15.10
2023-05-22T20:09:39.519Z,14.77
2023-05-22T20:12:07.985Z,12.75
2023-05-22T20:14:36.535Z,12.25
2023-05-22T20:17:05.072Z,13.75
2023-05-22T20:19:34.681Z,13.63
2023-05-22T20:22:05.650Z,16.50
2023-05-22T20:24:35.766Z,15.27
2023-05-22T20:27:06.371Z,14.88
2023-05-22T20:29:34.527Z,17.50
2023-05-22T20:32:02.888Z,17.83
2023-05-22T20:34:32.239Z,16.70
2023-05-22T20:37:00.753Z,16.05
2023-05-22T20:39:29.537Z,17.15
2023-05-22T20:41:57.704Z,15.95
2023-05-22T20:44:25.844Z,14.30
2023-05-22T20:46:54.218Z,15.05
2023-05-22T20:49:22.506Z,14.65
2023-05-22T20:51:51.112Z,13.73
2023-05-22T20:54:19.452Z,13.57
2023-05-22T20:56:47.692Z,13.27
2023-05-22T20:59:15.930Z,12.88
2023-05-22T21:01:45.016Z,13.55
2023-05-22T21:04:13.365Z,13.85
2023-05-22T21:06:41.489Z,13.48
2023-05-22T21:09:09.881Z,14.00
2023-05-22T21:11:38.125Z,13.95
2023-05-22T21:14:06.235Z,15.88
2023-05-22T21:16:36.357Z,16.02
2023-05-22T21:19:07.693Z,17.40
2023-05-22T21:21:41.805Z,15.40
2023-05-22T21:24:10.650Z,15.07
2023-05-22T21:26:39.636Z,16.23
2023-05-22T21:29:08.353Z,16.40
2023-05-22T21:31:36.536Z,16.27
2023-05-22T21:34:04.782Z,15.73
2023-05-22T21:36:33.000Z,15.55
2023-05-22T21:39:01.110Z,15.45
2023-05-22T21:41:29.448Z,13.90
2023-05-22T21:43:58.170Z,14.32
2023-05-22T21:46:26.503Z,13.98
2023-05-22T21:48:54.652Z,14.27
2023-05-22T21:51:22.917Z,13.27
2023-05-22T21:53:51.267Z,13.85
2023-05-22T21:56:19.464Z,13.55
2023-05-22T21:58:48.768Z,13.52
2023-05-22T22:01:17.346Z,14.35
2023-05-22T22:03:45.489Z,13.90
2023-05-22T22:06:13.622Z,14.82
2023-05-22T22:08:41.973Z,14.25
2023-05-22T22:11:10.134Z,14.68
2023-05-22T22:13:38.314Z,14.70
2023-05-22T22:16:06.546Z,15.45
2023-05-22T22:18:34.862Z,13.73
2023-05-22T22:21:03.149Z,15.07
2023-05-22T22:23:31.415Z,13.68
2023-05-22T22:25:59.571Z,14.95
2023-05-22T22:28:27.771Z,14.52
2023-05-22T22:30:56.157Z,15.10
2023-05-22T22:33:24.885Z,15.32
2023-05-22T22:35:53.213Z,13.02
2023-05-22T22:38:21.363Z,12.55
2023-05-22T22:40:49.434Z,13.23
2023-05-22T22:43:17.830Z,13.27
2023-05-22T22:45:46.692Z,14.48
2023-05-22T22:48:16.721Z,13.98
2023-05-22T22:50:47.014Z,14.10
2023-05-22T22:53:15.148Z,14.55
2023-05-22T22:55:43.604Z,15.20
2023-05-22T22:58:11.873Z,15.18
2023-05-22T23:00:40.122Z,15.45
2023-05-22T23:03:08.882Z,15.13
2023-05-22T23:05:37.134Z,15.82
2023-05-22T23:08:05.262Z,14.15
2023-05-22T23:10:33.497Z,16.65
2023-05-22T23:13:01.683Z,12.93
2023-05-22T23:15:30.168Z,14.85
2023-05-22T23:17:58.157Z,14.18
2023-05-22T23:20:26.624Z,13.85
2023-05-22T23:22:55.080Z,12.02
2023-05-22T23:25:23.120Z,11.77
2023-05-22T23:27:52.327Z,11.13
2023-05-22T23:30:20.604Z,13.52
2023-05-22T23:32:48.894Z,12.18
2023-05-22T23:35:17.537Z,14.70
2023-05-22T23:37:45.669Z,13.13
2023-05-22T23:40:14.060Z,14.10
2023-05-22T23:42:42.167Z,15.15
2023-05-22T23:45:10.790Z,14.10
2023-05-22T23:47:39.177Z,13.52
2023-05-22T23:50:08.035Z,13.60
2023-05-22T23:52:36.800Z,13.90
2023-05-22T23:55:05.318Z,13.63
2023-05-22T23:57:33.412Z,13.65
